createdAt,value
2022-12-09T00:02:54.828Z,81.69
2022-12-09T00:05:57.833Z,81.74
2022-12-09T00:09:00.383Z,81.62
2022-12-09T00:12:03.188Z,81.53
2022-12-09T00:15:06.034Z,81.59
2022-12-09T00:18:09.727Z,81.65
2022-12-09T00:21:17.636Z,82.09
2022-12-09T00:24:20.467Z,81.72
2022-12-09T00:27:23.065Z,81.86
2022-12-09T00:30:26.197Z,82.21
2022-12-09T00:33:30.903Z,82.18
2022-12-09T00:36:34.571Z,82.33
2022-12-09T00:39:37.033Z,82.38
2022-12-09T00:42:39.886Z,82.08
2022-12-09T00:45:42.415Z,81.88
2022-12-09T00:48:46.146Z,82.37
2022-12-09T00:51:48.936Z,82.40
2022-12-09T00:54:52.126Z,82.39
2022-12-09T00:57:54.615Z,83.14
2022-12-09T01:00:58.154Z,82.71
2022-12-09T01:04:02.533Z,82.32
2022-12-09T01:07:05.592Z,82.33
2022-12-09T01:10:08.763Z,82.19
2022-12-09T01:13:14.427Z,82.23
2022-12-09T01:16:25.109Z,82.46
2022-12-09T01:19:28.351Z,82.40
2022-12-09T01:22:31.000Z,82.53
2022-12-09T01:25:33.771Z,83.00
2022-12-09T01:28:37.856Z,83.02
2022-12-09T01:31:40.811Z,83.30
2022-12-09T01:34:43.255Z,83.20
2022-12-09T01:37:45.874Z,83.38
2022-12-09T01:40:48.377Z,83.66
2022-12-09T01:44:07.676Z,83.17
2022-12-09T01:47:22.834Z,83.17
2022-12-09T01:50:27.278Z,83.19
2022-12-09T01:53:34.735Z,82.92
2022-12-09T01:56:39.287Z,82.86
2022-12-09T01:59:42.474Z,82.95
2022-12-09T02:02:48.761Z,83.23
2022-12-09T02:05:52.968Z,83.10
2022-12-09T02:08:56.415Z,83.20
2022-12-09T02:12:13.037Z,83.10
2022-12-09T02:15:22.600Z,83.05
2022-12-09T02:18:38.699Z,82.67
2022-12-09T02:21:49.627Z,82.70
2022-12-09T02:25:11.383Z,82.95
2022-12-09T02:28:46.081Z,83.08
2022-12-09T02:32:15.794Z,82.92
2022-12-09T02:35:55.670Z,82.97
2022-12-09T02:39:00.341Z,83.01
2022-12-09T02:42:07.090Z,82.87
2022-12-09T02:45:12.397Z,83.00
2022-12-09T02:48:18.597Z,83.00
2022-12-09T02:51:24.159Z,83.31
2022-12-09T02:54:30.010Z,83.16
2022-12-09T02:57:36.048Z,83.14
2022-12-09T03:00:40.994Z,83.10
2022-12-09T03:03:43.726Z,83.00
2022-12-09T03:06:53.117Z,83.44
2022-12-09T03:10:23.608Z,83.44
2022-12-09T03:13:47.011Z,83.69
2022-12-09T03:16:55.658Z,84.04
2022-12-09T03:20:09.117Z,84.03
2022-12-09T03:23:15.604Z,84.03
2022-12-09T03:26:18.957Z,84.12
2022-12-09T03:29:25.027Z,84.29
2022-12-09T03:32:29.069Z,84.27
2022-12-09T03:35:45.207Z,84.71
2022-12-09T03:38:49.638Z,84.73
2022-12-09T03:41:57.321Z,85.08
2022-12-09T03:45:05.655Z,85.03
2022-12-09T03:48:09.725Z,85.31
2022-12-09T03:51:35.218Z,85.79
2022-12-09T03:54:44.702Z,86.09
2022-12-09T03:57:51.645Z,86.43
2022-12-09T04:00:54.285Z,86.97
2022-12-09T04:03:58.112Z,86.91
2022-12-09T04:07:01.174Z,87.01
2022-12-09T04:10:05.680Z,87.30
2022-12-09T04:13:08.567Z,87.92
2022-12-09T04:16:11.226Z,88.41
2022-12-09T04:19:13.728Z,88.41
2022-12-09T04:22:16.373Z,88.95
2022-12-09T04:25:18.844Z,89.45
2022-12-09T04:28:21.655Z,89.32
2022-12-09T04:31:24.254Z,89.31
2022-12-09T04:34:27.054Z,89.18
2022-12-09T04:37:29.512Z,88.92
2022-12-09T04:40:32.581Z,88.85
2022-12-09T04:43:35.715Z,88.70
2022-12-09T04:46:38.673Z,89.02
2022-12-09T04:49:41.023Z,88.83
2022-12-09T04:52:44.005Z,88.81
2022-12-09T04:55:46.314Z,88.95
2022-12-09T04:58:50.771Z,88.92
2022-12-09T05:01:53.501Z,88.77
2022-12-09T05:04:56.309Z,88.82
2022-12-09T05:07:59.555Z,88.70
2022-12-09T05:11:02.730Z,88.78
2022-12-09T05:14:05.469Z,88.69
2022-12-09T05:17:08.753Z,88.73
2022-12-09T05:20:11.889Z,89.06
2022-12-09T05:23:14.971Z,89.13
2022-12-09T05:26:20.108Z,89.18
2022-12-09T05:29:23.624Z,89.09
2022-12-09T05:32:29.204Z,89.01
2022-12-09T05:35:35.451Z,89.48
2022-12-09T05:38:43.683Z,89.79
2022-12-09T05:41:47.337Z,89.79
2022-12-09T05:44:49.906Z,89.81
2022-12-09T05:47:52.845Z,89.93
2022-12-09T05:51:00.044Z,90.10
2022-12-09T05:54:04.724Z,90.22
2022-12-09T05:57:07.471Z,90.26
2022-12-09T06:00:11.724Z,90.03
2022-12-09T06:03:14.719Z,89.79
2022-12-09T06:06:20.639Z,89.71
2022-12-09T06:09:23.436Z,89.75
2022-12-09T06:12:26.297Z,89.68
2022-12-09T06:15:33.100Z,89.54
2022-12-09T06:18:37.107Z,89.49
2022-12-09T06:21:40.939Z,89.45
2022-12-09T06:24:43.852Z,89.35
2022-12-09T06:27:46.295Z,89.47
2022-12-09T06:30:48.943Z,89.36
2022-12-09T06:33:56.521Z,89.43
2022-12-09T06:37:00.288Z,89.25
2022-12-09T06:40:02.761Z,89.47
2022-12-09T06:43:05.708Z,89.54
2022-12-09T06:46:13.857Z,89.71
2022-12-09T06:49:16.624Z,89.82
2022-12-09T06:52:19.046Z,90.09
2022-12-09T06:55:22.186Z,90.75
2022-12-09T06:58:24.975Z,90.90
2022-12-09T07:01:27.756Z,91.02
2022-12-09T07:04:30.478Z,91.05
2022-12-09T07:07:33.330Z,90.91
2022-12-09T07:10:36.870Z,90.86
2022-12-09T07:13:39.955Z,90.81
2022-12-09T07:16:43.133Z,90.98
2022-12-09T07:19:47.263Z,90.97
2022-12-09T07:22:49.716Z,91.02
2022-12-09T07:25:58.766Z,91.15
2022-12-09T07:29:03.870Z,91.04
2022-12-09T07:32:09.902Z,91.27
2022-12-09T07:35:12.709Z,91.52
2022-12-09T07:38:15.860Z,91.55
2022-12-09T07:41:18.572Z,91.59
2022-12-09T07:44:21.653Z,91.52
2022-12-09T07:47:24.196Z,91.82
2022-12-09T07:50:28.459Z,92.05
2022-12-09T07:53:33.929Z,91.92
2022-12-09T07:56:37.907Z,91.68
2022-12-09T07:59:40.371Z,91.62
2022-12-09T08:02:42.939Z,91.87
2022-12-09T08:05:50.320Z,91.91
2022-12-09T08:08:53.953Z,91.81
2022-12-09T08:11:56.790Z,91.75
2022-12-09T08:14:59.157Z,92.08
2022-12-09T08:18:02.496Z,91.51
2022-12-09T08:21:08.970Z,91.52
2022-12-09T08:24:12.839Z,91.47
2022-12-09T08:27:15.680Z,91.29
2022-12-09T08:30:19.043Z,91.66
2022-12-09T08:33:22.972Z,91.52
2022-12-09T08:36:28.380Z,91.39
2022-12-09T08:39:31.775Z,91.47
2022-12-09T08:42:35.238Z,90.97
2022-12-09T08:45:39.953Z,91.15
2022-12-09T08:48:43.758Z,90.85
2022-12-09T08:51:48.387Z,91.10
2022-12-09T08:54:52.331Z,90.94
2022-12-09T08:57:54.816Z,90.71
2022-12-09T09:00:58.098Z,90.98
2022-12-09T09:04:06.415Z,90.84
2022-12-09T09:07:09.849Z,91.15
2022-12-09T09:10:13.344Z,90.83
2022-12-09T09:13:16.488Z,91.17
2022-12-09T09:16:21.939Z,91.22
2022-12-09T09:19:26.297Z,91.20
2022-12-09T09:22:29.867Z,90.92
2022-12-09T09:25:33.138Z,91.00
2022-12-09T09:28:35.639Z,91.07
2022-12-09T09:32:09.042Z,91.01
2022-12-09T09:35:18.279Z,91.03
2022-12-09T09:38:21.363Z,91.22
2022-12-09T09:41:38.607Z,91.10
2022-12-09T09:44:46.237Z,91.11
2022-12-09T09:48:19.150Z,91.62
2022-12-09T09:51:22.783Z,91.36
2022-12-09T09:54:26.185Z,90.94
2022-12-09T09:57:40.434Z,90.83
2022-12-09T10:01:02.439Z,90.93
2022-12-09T10:04:20.758Z,90.58
2022-12-09T10:07:28.124Z,90.79
2022-12-09T10:10:55.639Z,91.02
2022-12-09T10:14:23.289Z,90.97
2022-12-09T10:17:35.688Z,91.52
2022-12-09T10:20:40.779Z,91.32
2022-12-09T10:23:45.276Z,91.18
2022-12-09T10:27:18.628Z,91.03
2022-12-09T10:30:22.462Z,91.43
2022-12-09T10:33:30.943Z,91.13
2022-12-09T10:36:36.576Z,91.03
2022-12-09T10:39:39.492Z,91.28
2022-12-09T10:43:08.826Z,91.24
2022-12-09T10:46:18.406Z,90.87
2022-12-09T10:49:22.933Z,91.37
2022-12-09T10:52:36.303Z,91.03
2022-12-09T10:55:42.833Z,91.14
2022-12-09T10:58:45.354Z,91.54
2022-12-09T11:01:54.819Z,91.25
2022-12-09T11:05:21.755Z,90.93
2022-12-09T11:08:25.114Z,91.06
2022-12-09T11:11:48.801Z,91.25
2022-12-09T11:15:12.676Z,91.17
2022-12-09T11:18:20.253Z,91.71
2022-12-09T11:21:35.885Z,91.12
2022-12-09T11:24:38.623Z,91.13
2022-12-09T11:27:59.847Z,90.84
2022-12-09T11:31:28.891Z,91.12
2022-12-09T11:34:31.889Z,91.03
2022-12-09T11:37:39.594Z,91.02
2022-12-09T11:40:42.325Z,91.08
2022-12-09T11:43:46.217Z,90.81
2022-12-09T11:47:01.052Z,91.57
2022-12-09T11:50:06.322Z,92.00
2022-12-09T11:53:12.328Z,91.96
2022-12-09T11:56:25.806Z,91.43
2022-12-09T11:59:38.424Z,91.20
2022-12-09T12:02:57.496Z,90.97
2022-12-09T12:06:03.992Z,90.59
2022-12-09T12:09:24.034Z,90.80
2022-12-09T12:12:46.196Z,90.80
2022-12-09T12:15:51.551Z,91.12
2022-12-09T12:19:04.750Z,90.96
2022-12-09T12:22:37.339Z,90.88
2022-12-09T12:25:48.934Z,90.82
2022-12-09T12:28:58.994Z,90.87
2022-12-09T12:32:27.631Z,90.46
2022-12-09T12:35:39.182Z,91.03
2022-12-09T12:38:50.446Z,90.76
2022-12-09T12:42:30.085Z,91.24
2022-12-09T12:46:09.976Z,91.00
2022-12-09T12:49:30.836Z,91.20
2022-12-09T12:52:56.843Z,90.92
2022-12-09T12:56:11.735Z,91.11
2022-12-09T13:00:01.378Z,91.25
2022-12-09T13:03:19.795Z,91.03
2022-12-09T13:06:48.099Z,90.92
2022-12-09T13:09:58.014Z,91.17
2022-12-09T13:13:04.149Z,91.41
2022-12-09T13:16:27.762Z,91.50
2022-12-09T13:19:52.822Z,91.10
2022-12-09T13:23:06.892Z,91.41
2022-12-09T13:26:26.375Z,91.42
2022-12-09T13:29:37.452Z,91.05
2022-12-09T13:33:09.907Z,91.31
2022-12-09T13:36:22.780Z,91.58
2022-12-09T13:39:40.508Z,91.88
2022-12-09T13:42:58.579Z,92.23
2022-12-09T13:46:02.283Z,92.70
2022-12-09T13:49:18.115Z,92.95
2022-12-09T13:52:41.206Z,92.86
2022-12-09T13:56:06.814Z,92.90
2022-12-09T13:59:28.082Z,93.04
2022-12-09T14:02:50.239Z,93.05
2022-12-09T14:05:56.557Z,93.25
2022-12-09T14:09:04.226Z,93.01
2022-12-09T14:12:26.745Z,92.76
2022-12-09T14:15:29.379Z,92.67
2022-12-09T14:18:33.465Z,92.62
2022-12-09T14:21:35.763Z,93.12
2022-12-09T14:24:38.685Z,93.04
2022-12-09T14:28:09.936Z,92.94
2022-12-09T14:31:12.575Z,92.69
2022-12-09T14:34:26.856Z,92.92
2022-12-09T14:38:00.543Z,93.04
2022-12-09T14:41:14.859Z,92.88
2022-12-09T14:44:27.026Z,92.86
2022-12-09T14:47:33.089Z,92.96
2022-12-09T14:50:38.713Z,92.93
2022-12-09T14:53:41.227Z,92.91
2022-12-09T14:56:50.594Z,92.95
2022-12-09T14:59:55.630Z,92.95
2022-12-09T15:03:30.686Z,93.05
2022-12-09T15:06:21.484Z,92.95
2022-12-09T15:09:24.054Z,92.92
2022-12-09T15:12:31.460Z,93.05
2022-12-09T15:15:38.339Z,92.97
2022-12-09T15:18:43.374Z,92.91
2022-12-09T15:21:48.495Z,92.97
2022-12-09T15:24:51.660Z,93.07
2022-12-09T15:28:11.873Z,92.93
2022-12-09T15:31:18.700Z,92.96
2022-12-09T15:34:26.573Z,92.95
2022-12-09T15:37:29.255Z,93.04
2022-12-09T15:40:34.733Z,93.05
2022-12-09T15:43:38.944Z,93.21
2022-12-09T15:46:44.087Z,93.23
2022-12-09T15:49:56.267Z,93.35
2022-12-09T15:53:17.213Z,93.27
2022-12-09T15:56:28.328Z,93.59
2022-12-09T15:59:36.435Z,93.40
2022-12-09T16:02:40.398Z,93.45
2022-12-09T16:05:43.368Z,93.78
2022-12-09T16:08:45.642Z,93.31
2022-12-09T16:11:53.920Z,93.36
2022-12-09T16:14:56.264Z,93.75
2022-12-09T16:18:02.931Z,93.71
2022-12-09T16:21:28.796Z,93.41
2022-12-09T16:24:57.864Z,93.34
2022-12-09T16:28:00.266Z,93.23
2022-12-09T16:31:16.672Z,92.97
2022-12-09T16:34:21.504Z,93.11
2022-12-09T16:37:37.614Z,93.31
2022-12-09T16:40:45.882Z,93.39
2022-12-09T16:43:57.634Z,93.59
2022-12-09T16:47:14.452Z,93.61
2022-12-09T16:50:17.240Z,93.71
2022-12-09T16:53:23.560Z,93.78
2022-12-09T16:56:29.040Z,93.94
2022-12-09T16:59:37.604Z,94.04
2022-12-09T17:02:46.023Z,94.14
2022-12-09T17:05:48.739Z,94.21
2022-12-09T17:08:51.757Z,94.10
2022-12-09T17:11:54.006Z,94.27
2022-12-09T17:14:56.626Z,94.26
2022-12-09T17:17:59.018Z,94.40
2022-12-09T17:21:04.030Z,94.46
2022-12-09T17:24:06.807Z,94.45
2022-12-09T17:27:09.448Z,94.58
2022-12-09T17:30:12.397Z,94.52
2022-12-09T17:33:14.962Z,94.56
2022-12-09T17:36:18.511Z,94.76
2022-12-09T17:39:21.829Z,94.73
2022-12-09T17:42:24.093Z,94.69
2022-12-09T17:45:27.306Z,94.74
2022-12-09T17:48:30.934Z,94.75
2022-12-09T17:51:36.350Z,94.72
2022-12-09T17:54:39.360Z,94.95
2022-12-09T17:57:41.911Z,94.69
2022-12-09T18:00:44.284Z,94.87
2022-12-09T18:03:56.607Z,94.54
2022-12-09T18:07:00.091Z,94.72
2022-12-09T18:10:04.072Z,94.91
2022-12-09T18:13:06.460Z,94.93
2022-12-09T18:16:10.421Z,94.65
2022-12-09T18:19:18.179Z,94.90
2022-12-09T18:22:20.742Z,94.95
2022-12-09T18:25:23.013Z,95.12
2022-12-09T18:28:29.914Z,95.14
2022-12-09T18:31:32.238Z,95.23
2022-12-09T18:34:35.743Z,95.38
2022-12-09T19:28:48.275Z,95.55
2022-12-09T19:31:52.289Z,95.40
2022-12-09T19:34:54.633Z,95.46
2022-12-09T19:38:01.227Z,95.39
2022-12-09T19:41:04.074Z,95.32
2022-12-09T19:44:07.102Z,95.60
2022-12-09T19:47:09.407Z,95.57
2022-12-09T19:50:12.315Z,95.58
2022-12-09T19:53:14.566Z,95.57
2022-12-09T19:56:18.819Z,95.39
2022-12-09T19:59:21.070Z,95.53
2022-12-09T20:02:23.678Z,95.59
2022-12-09T20:05:26.264Z,95.55
2022-12-09T20:08:28.647Z,95.72
2022-12-09T20:11:34.361Z,95.82
2022-12-09T20:14:36.653Z,95.89
2022-12-09T20:17:39.242Z,95.81
2022-12-09T20:20:45.699Z,95.77
2022-12-09T20:23:53.602Z,95.79
2022-12-09T20:26:56.084Z,95.89
2022-12-09T20:29:58.650Z,95.87
2022-12-09T20:33:01.807Z,95.77
2022-12-09T20:36:17.846Z,95.73
2022-12-09T20:39:21.186Z,95.66
2022-12-09T20:42:23.689Z,95.73
2022-12-09T20:45:26.105Z,95.67
2022-12-09T20:48:29.678Z,95.83
2022-12-09T20:51:36.470Z,95.97
2022-12-09T20:54:39.101Z,95.95
2022-12-09T20:57:41.391Z,95.98
2022-12-09T21:00:44.157Z,96.01
2022-12-09T21:03:47.948Z,95.84
2022-12-09T21:06:50.809Z,95.74
2022-12-09T21:09:53.024Z,95.73
2022-12-09T21:12:55.601Z,95.69
2022-12-09T21:16:32.319Z,95.52
2022-12-09T21:19:34.941Z,95.50
2022-12-09T21:22:37.227Z,95.45
2022-12-09T21:25:39.787Z,95.38
2022-12-09T21:28:43.429Z,95.35
2022-12-09T21:31:48.301Z,95.38
2022-12-09T21:34:50.781Z,95.35
2022-12-09T21:37:56.228Z,95.29
2022-12-09T21:41:05.653Z,95.19
2022-12-09T21:44:09.829Z,94.92
2022-12-09T21:47:12.402Z,94.99
2022-12-09T21:50:15.018Z,95.02
2022-12-09T21:53:17.801Z,95.00
2022-12-09T21:56:25.701Z,95.05
2022-12-09T21:59:27.945Z,95.15
2022-12-09T22:02:30.472Z,94.94
2022-12-09T22:05:33.662Z,94.94
2022-12-09T22:08:37.007Z,94.83
2022-12-09T22:11:39.935Z,94.89
2022-12-09T22:14:42.235Z,94.91
2022-12-09T22:17:44.810Z,94.98
2022-12-09T22:21:23.180Z,94.95
2022-12-09T22:24:11.313Z,95.04
2022-12-09T22:27:13.815Z,94.96
2022-12-09T22:30:16.433Z,94.93
2022-12-09T22:33:18.661Z,95.10
2022-12-09T22:36:22.972Z,95.17
2022-12-09T22:39:25.238Z,95.27
2022-12-09T22:42:31.587Z,95.20
2022-12-09T22:45:36.008Z,95.17
2022-12-09T22:48:39.829Z,95.25
2022-12-09T22:51:42.923Z,95.29
2022-12-09T22:54:45.458Z,95.29
2022-12-09T22:57:47.708Z,95.42
2022-12-09T23:00:50.438Z,95.45
2022-12-09T23:03:54.465Z,95.58
2022-12-09T23:06:57.154Z,95.42
2022-12-09T23:09:59.949Z,95.51
2022-12-09T23:13:02.519Z,95.65
2022-12-09T23:16:06.420Z,95.58
2022-12-09T23:19:10.037Z,95.81
2022-12-09T23:22:12.375Z,95.86
2022-12-09T23:25:15.072Z,95.90
2022-12-09T23:28:17.793Z,95.96
2022-12-09T23:31:23.188Z,95.94
2022-12-09T23:34:25.514Z,96.10
2022-12-09T23:37:28.089Z,96.05
2022-12-09T23:40:30.320Z,95.88
2022-12-09T23:43:34.584Z,95.67
2022-12-09T23:46:37.601Z,95.76
2022-12-09T23:49:40.331Z,95.70
2022-12-09T23:52:42.532Z,95.67
2022-12-09T23:55:45.336Z,95.44
2022-12-09T23:58:52.545Z,95.50
